createdAt,value
2018-06-22T00:00:51.857Z,10.75
2018-06-22T00:01:51.868Z,10.69
2018-06-22T00:02:51.835Z,10.82
2018-06-22T00:03:51.772Z,10.75
2018-06-22T00:04:51.729Z,10.71
2018-06-22T00:05:51.764Z,10.84
2018-06-22T00:06:51.670Z,10.82
2018-06-22T00:07:51.606Z,10.92
2018-06-22T00:08:51.607Z,10.78
2018-06-22T00:09:51.536Z,10.71
2018-06-22T00:10:51.548Z,10.84
2018-06-22T00:11:51.477Z,10.69
2018-06-22T00:12:51.468Z,10.92
2018-06-22T00:13:51.441Z,10.89
2018-06-22T00:14:51.375Z,10.93
2018-06-22T00:15:51.410Z,10.96
2018-06-22T00:16:51.284Z,11.10
2018-06-22T00:17:51.267Z,11.32
2018-06-22T00:18:51.242Z,11.25
2018-06-22T00:19:51.214Z,11.22
2018-06-22T00:20:51.152Z,11.18
2018-06-22T00:21:51.143Z,11.32
2018-06-22T00:22:51.081Z,11.30
2018-06-22T00:23:51.042Z,11.23
2018-06-22T00:24:51.029Z,11.11
2018-06-22T00:25:50.974Z,11.07
2018-06-22T00:26:50.962Z,11.10
2018-06-22T00:27:50.925Z,10.97
2018-06-22T00:28:50.862Z,11.08
2018-06-22T00:29:50.826Z,11.08
2018-06-22T00:30:50.788Z,10.92
2018-06-22T00:31:50.757Z,10.92
2018-06-22T00:32:50.729Z,11.12
2018-06-22T00:33:50.693Z,11.15
2018-06-22T00:34:50.648Z,11.23
2018-06-22T00:35:50.609Z,11.15
2018-06-22T00:36:50.609Z,11.33
2018-06-22T00:37:50.539Z,11.23
2018-06-22T00:38:50.547Z,11.40
2018-06-22T00:39:50.505Z,11.44
2018-06-22T00:40:50.441Z,11.30
2018-06-22T00:41:50.402Z,11.36
2018-06-22T00:42:50.381Z,11.35
2018-06-22T00:43:50.340Z,11.35
2018-06-22T00:44:50.287Z,11.36
2018-06-22T00:45:50.284Z,11.54
2018-06-22T00:46:50.235Z,11.48
2018-06-22T00:47:50.192Z,11.59
2018-06-22T00:48:50.146Z,11.66
2018-06-22T00:49:50.135Z,11.65
2018-06-22T00:50:50.090Z,11.77
2018-06-22T00:51:50.044Z,11.78
2018-06-22T00:52:50.028Z,11.97
2018-06-22T00:53:49.998Z,12.02
2018-06-22T00:54:49.953Z,12.09
2018-06-22T00:55:49.952Z,11.97
2018-06-22T00:56:49.866Z,12.06
2018-06-22T00:57:49.832Z,12.03
2018-06-22T00:58:49.797Z,11.84
2018-06-22T00:59:49.760Z,11.68
2018-06-22T01:00:49.727Z,11.81
2018-06-22T01:01:49.705Z,11.94
2018-06-22T01:02:49.659Z,11.81
2018-06-22T01:03:49.626Z,11.80
2018-06-22T01:04:49.585Z,11.70
2018-06-22T01:05:49.550Z,11.68
2018-06-22T01:06:49.522Z,11.62
2018-06-22T01:07:49.476Z,11.63
2018-06-22T01:08:49.439Z,11.60
2018-06-22T01:09:49.407Z,11.65
2018-06-22T01:10:49.375Z,11.72
2018-06-22T01:11:49.362Z,11.65
2018-06-22T01:12:49.316Z,11.62
2018-06-22T01:13:49.266Z,11.63
2018-06-22T01:14:49.231Z,11.77
2018-06-22T01:15:49.196Z,11.68
2018-06-22T01:16:49.160Z,11.69
2018-06-22T01:17:49.125Z,11.70
2018-06-22T01:18:49.091Z,11.87
2018-06-22T01:19:49.052Z,11.78
2018-06-22T01:20:49.020Z,11.75
2018-06-22T01:21:48.983Z,11.65
2018-06-22T01:22:48.949Z,11.59
2018-06-22T01:23:48.923Z,11.60
2018-06-22T01:24:48.912Z,11.48
2018-06-22T01:25:48.842Z,11.45
2018-06-22T01:26:48.805Z,11.48
2018-06-22T01:27:48.772Z,11.73
2018-06-22T01:28:48.736Z,11.57
2018-06-22T01:29:48.702Z,11.65
2018-06-22T01:30:48.669Z,11.52
2018-06-22T01:31:48.652Z,11.45
2018-06-22T01:32:48.594Z,11.37
2018-06-22T01:33:48.557Z,11.40
2018-06-22T01:34:48.522Z,11.45
2018-06-22T01:35:48.507Z,11.45
2018-06-22T01:36:48.453Z,11.35
2018-06-22T01:37:48.416Z,11.43
2018-06-22T01:38:48.381Z,11.36
2018-06-22T01:39:48.350Z,11.40
2018-06-22T01:40:48.328Z,11.25
2018-06-22T01:41:48.275Z,11.26
2018-06-22T01:42:48.243Z,11.26
2018-06-22T01:43:48.204Z,11.40
2018-06-22T01:44:48.167Z,11.33
2018-06-22T01:45:48.133Z,11.40
2018-06-22T01:46:48.097Z,11.35
2018-06-22T01:47:48.061Z,11.47
2018-06-22T01:48:48.025Z,11.47
2018-06-22T01:49:47.986Z,11.45
2018-06-22T01:50:47.972Z,11.54
2018-06-22T01:51:47.918Z,11.52
2018-06-22T01:52:47.883Z,11.55
2018-06-22T01:53:47.849Z,11.65
2018-06-22T01:54:47.840Z,11.66
2018-06-22T01:55:47.777Z,11.55
2018-06-22T01:56:47.741Z,11.50
2018-06-22T01:57:47.707Z,11.60
2018-06-22T01:58:47.671Z,11.57
2018-06-22T01:59:47.633Z,11.66
2018-06-22T02:00:47.599Z,11.78
2018-06-22T02:01:47.566Z,11.84
2018-06-22T02:02:47.528Z,12.18
2018-06-22T02:03:47.493Z,12.04
2018-06-22T02:04:47.457Z,12.04
2018-06-22T02:05:47.478Z,12.03
2018-06-22T02:06:47.387Z,11.99
2018-06-22T02:07:47.354Z,11.94
2018-06-22T02:08:47.313Z,11.84
2018-06-22T02:09:47.279Z,11.86
2018-06-22T02:10:47.247Z,11.77
2018-06-22T02:11:47.210Z,11.66
2018-06-22T02:12:47.176Z,11.72
2018-06-22T02:13:47.169Z,11.66
2018-06-22T02:14:47.101Z,11.55
2018-06-22T02:15:47.069Z,11.43
2018-06-22T02:16:47.042Z,11.41
2018-06-22T02:17:47.000Z,11.37
2018-06-22T02:18:46.955Z,11.32
2018-06-22T02:19:46.925Z,11.36
2018-06-22T02:20:46.891Z,11.33
2018-06-22T02:21:46.878Z,11.35
2018-06-22T02:22:46.822Z,11.35
2018-06-22T02:23:46.783Z,11.40
2018-06-22T02:24:46.752Z,11.29
2018-06-22T02:25:46.719Z,11.33
2018-06-22T02:26:46.707Z,11.40
2018-06-22T02:27:46.643Z,11.45
2018-06-22T02:28:46.616Z,11.35
2018-06-22T02:29:46.571Z,11.33
2018-06-22T02:30:46.538Z,11.35
2018-06-22T02:31:46.501Z,11.40
2018-06-22T02:32:46.462Z,11.40
2018-06-22T02:33:46.443Z,11.50
2018-06-22T02:34:46.409Z,11.43
2018-06-22T02:35:46.362Z,11.41
2018-06-22T02:36:46.323Z,11.55
2018-06-22T02:37:46.290Z,11.55
2018-06-22T02:38:46.251Z,11.50
2018-06-22T02:39:46.214Z,11.36
2018-06-22T02:40:46.179Z,11.40
2018-06-22T02:41:46.148Z,11.18
2018-06-22T02:42:46.111Z,11.19
2018-06-22T02:43:46.073Z,11.23
2018-06-22T02:44:46.040Z,11.23
2018-06-22T02:45:46.035Z,11.19
2018-06-22T02:46:45.968Z,11.22
2018-06-22T02:47:45.933Z,11.22
2018-06-22T02:48:45.898Z,11.14
2018-06-22T02:49:45.863Z,11.14
2018-06-22T02:50:45.826Z,11.11
2018-06-22T02:51:45.789Z,10.97
2018-06-22T02:52:45.764Z,10.92
2018-06-22T02:53:45.719Z,10.86
2018-06-22T02:54:45.684Z,10.92
2018-06-22T02:55:45.646Z,10.84
2018-06-22T02:56:45.611Z,10.78
2018-06-22T02:57:45.573Z,10.74
2018-06-22T02:58:45.541Z,10.69
2018-06-22T02:59:45.512Z,10.78
2018-06-22T03:00:45.469Z,10.79
2018-06-22T03:01:45.433Z,10.82
2018-06-22T03:02:45.399Z,10.86
2018-06-22T03:03:45.363Z,10.86
2018-06-22T03:04:45.361Z,10.87
2018-06-22T03:05:45.290Z,10.89
2018-06-22T03:06:45.253Z,10.87
2018-06-22T03:07:45.219Z,10.78
2018-06-22T03:08:45.182Z,10.86
2018-06-22T03:09:45.148Z,10.82
2018-06-22T03:10:45.117Z,10.82
2018-06-22T03:11:45.072Z,10.86
2018-06-22T03:12:45.041Z,10.81
2018-06-22T03:13:45.006Z,10.89
2018-06-22T03:14:44.964Z,10.87
2018-06-22T03:15:44.932Z,10.75
2018-06-22T03:16:44.900Z,10.75
2018-06-22T03:17:44.864Z,10.89
2018-06-22T03:18:44.826Z,10.82
2018-06-22T03:19:44.805Z,10.81
2018-06-22T03:20:44.755Z,10.75
2018-06-22T03:21:44.716Z,10.86
2018-06-22T03:22:44.683Z,10.69
2018-06-22T03:23:44.643Z,10.63
2018-06-22T03:24:44.610Z,10.63
2018-06-22T03:25:44.603Z,10.59
2018-06-22T03:26:44.537Z,10.59
2018-06-22T03:27:44.503Z,10.67
2018-06-22T03:28:44.467Z,10.63
2018-06-22T03:29:44.430Z,10.76
2018-06-22T03:30:44.394Z,10.72
2018-06-22T03:31:44.360Z,10.71
2018-06-22T03:32:44.321Z,10.68
2018-06-22T03:33:44.292Z,10.67
2018-06-22T03:34:44.252Z,10.61
2018-06-22T03:35:44.217Z,10.64
2018-06-22T03:36:44.180Z,10.69
2018-06-22T03:37:44.146Z,10.63
2018-06-22T03:38:44.108Z,10.72
2018-06-22T03:39:44.072Z,10.75
2018-06-22T03:40:44.038Z,10.90
2018-06-22T03:41:44.000Z,10.81
2018-06-22T03:42:43.986Z,10.86
2018-06-22T03:43:43.926Z,10.84
2018-06-22T03:44:43.892Z,10.76
2018-06-22T03:45:43.858Z,10.74
2018-06-22T03:46:43.827Z,10.74
2018-06-22T03:47:43.782Z,10.67
2018-06-22T03:48:43.749Z,10.57
2018-06-22T03:49:43.710Z,10.59
2018-06-22T03:50:43.724Z,10.63
2018-06-22T03:51:43.641Z,10.63
2018-06-22T03:52:43.606Z,10.63
2018-06-22T03:53:43.569Z,10.56
2018-06-22T03:54:43.532Z,10.59
2018-06-22T03:55:43.498Z,10.59
2018-06-22T03:56:43.524Z,10.71
2018-06-22T03:57:43.424Z,10.57
2018-06-22T03:58:43.385Z,10.61
2018-06-22T03:59:43.350Z,10.56
2018-06-22T04:00:43.320Z,10.64
2018-06-22T04:01:43.281Z,10.71
2018-06-22T04:02:43.246Z,10.61
2018-06-22T04:03:43.209Z,10.75
2018-06-22T04:04:43.173Z,10.89
2018-06-22T04:05:43.139Z,10.92
2018-06-22T04:06:43.102Z,10.87
2018-06-22T04:07:43.068Z,11.15
2018-06-22T04:08:43.029Z,11.15
2018-06-22T04:09:43.013Z,11.22
2018-06-22T04:10:42.961Z,11.33
2018-06-22T04:11:42.923Z,11.43
2018-06-22T04:12:42.888Z,11.43
2018-06-22T04:13:42.853Z,11.43
2018-06-22T04:14:42.819Z,11.57
2018-06-22T04:15:42.778Z,11.66
2018-06-22T04:16:42.758Z,11.66
2018-06-22T04:17:42.711Z,11.75
2018-06-22T04:18:42.674Z,11.80
2018-06-22T04:19:42.667Z,11.73
2018-06-22T04:20:42.623Z,11.70
2018-06-22T04:21:42.568Z,11.65
2018-06-22T04:22:42.542Z,11.84
2018-06-22T04:23:42.496Z,11.86
2018-06-22T04:24:42.462Z,11.97
2018-06-22T04:25:42.429Z,11.83
2018-06-22T04:26:42.389Z,11.95
2018-06-22T04:27:42.357Z,11.97
2018-06-22T04:28:42.319Z,11.84
2018-06-22T04:29:42.284Z,11.99
2018-06-22T04:30:42.251Z,11.95
2018-06-22T04:31:42.243Z,12.00
2018-06-22T04:32:42.179Z,12.04
2018-06-22T04:33:42.145Z,11.84
2018-06-22T04:34:42.109Z,11.73
2018-06-22T04:35:42.068Z,11.70
2018-06-22T04:36:42.041Z,11.66
2018-06-22T04:37:42.012Z,11.65
2018-06-22T04:38:42.033Z,11.66
2018-06-22T04:39:41.947Z,11.55
2018-06-22T04:40:41.896Z,11.66
2018-06-22T04:41:41.869Z,11.66
2018-06-22T04:42:41.830Z,11.68
2018-06-22T04:43:41.796Z,11.70
2018-06-22T04:44:41.759Z,11.81
2018-06-22T04:45:41.724Z,11.81
2018-06-22T04:46:41.688Z,11.84
2018-06-22T04:47:41.694Z,11.95
2018-06-22T04:48:41.618Z,11.99
2018-06-22T04:49:41.585Z,12.06
2018-06-22T04:50:41.550Z,11.99
2018-06-22T04:51:41.518Z,11.99
2018-06-22T04:52:41.480Z,12.12
2018-06-22T04:53:41.448Z,12.13
2018-06-22T04:54:41.411Z,12.18
2018-06-22T04:55:41.391Z,12.17
2018-06-22T04:56:41.340Z,12.25
2018-06-22T04:57:41.299Z,12.36
2018-06-22T04:58:41.945Z,12.47
2018-06-22T04:59:41.236Z,12.53
2018-06-22T05:00:41.217Z,12.54
2018-06-22T05:01:41.164Z,12.53
2018-06-22T05:02:41.127Z,12.50
2018-06-22T05:03:41.106Z,12.53
2018-06-22T05:04:41.064Z,12.39
2018-06-22T05:05:41.027Z,12.40
2018-06-22T05:06:41.012Z,12.29
2018-06-22T05:07:40.958Z,12.25
2018-06-22T05:08:40.923Z,12.20
2018-06-22T05:09:40.890Z,12.12
2018-06-22T05:10:40.888Z,12.22
2018-06-22T05:11:40.819Z,12.24
2018-06-22T05:12:40.784Z,12.20
2018-06-22T05:13:40.752Z,12.24
2018-06-22T05:14:40.719Z,12.28
2018-06-22T05:15:40.742Z,12.40
2018-06-22T05:16:40.645Z,12.35
2018-06-22T05:17:40.612Z,12.50
2018-06-22T05:18:40.607Z,12.60
2018-06-22T05:19:40.540Z,12.50
2018-06-22T05:20:40.506Z,12.62
2018-06-22T05:21:40.474Z,12.61
2018-06-22T05:22:40.458Z,12.72
2018-06-22T05:23:40.405Z,12.76
2018-06-22T05:24:40.369Z,12.76
2018-06-22T05:25:40.332Z,12.75
2018-06-22T05:26:40.300Z,12.75
2018-06-22T05:27:40.264Z,12.73
2018-06-22T05:28:40.242Z,12.73
2018-06-22T05:29:40.194Z,12.76
2018-06-22T05:30:40.165Z,12.80
2018-06-22T05:31:40.126Z,12.79
2018-06-22T05:32:40.091Z,12.87
2018-06-22T05:33:40.058Z,12.90
2018-06-22T05:34:40.025Z,12.87
2018-06-22T05:35:39.985Z,12.87
2018-06-22T05:36:39.953Z,12.93
2018-06-22T05:37:39.919Z,12.91
2018-06-22T05:38:39.886Z,12.91
2018-06-22T05:39:39.846Z,13.01
2018-06-22T05:40:39.816Z,12.93
2018-06-22T05:41:39.782Z,13.01
2018-06-22T05:42:39.748Z,13.12
2018-06-22T05:43:39.714Z,13.09
2018-06-22T05:44:39.678Z,13.03
2018-06-22T05:45:39.649Z,13.09
2018-06-22T05:46:39.611Z,13.05
2018-06-22T05:47:39.580Z,13.03
2018-06-22T05:48:39.541Z,13.09
2018-06-22T05:49:39.503Z,13.09
2018-06-22T05:50:39.507Z,13.08
2018-06-22T05:51:39.439Z,13.09
2018-06-22T05:52:39.406Z,13.18
2018-06-22T05:53:39.391Z,13.12
2018-06-22T05:54:39.333Z,13.19
2018-06-22T05:55:39.299Z,13.16
2018-06-22T05:56:39.274Z,13.27
2018-06-22T05:57:39.250Z,13.33
2018-06-22T05:58:39.218Z,13.39
2018-06-22T05:59:39.163Z,13.39
2018-06-22T06:00:39.136Z,13.54
2018-06-22T06:01:39.099Z,13.52
2018-06-22T06:02:39.064Z,13.54
2018-06-22T06:03:39.109Z,13.65
2018-06-22T06:04:38.998Z,13.57
2018-06-22T06:05:38.961Z,13.70
2018-06-22T06:06:38.935Z,13.72
2018-06-22T06:07:38.915Z,13.67
2018-06-22T06:08:38.864Z,13.65
2018-06-22T06:09:38.823Z,13.70
2018-06-22T06:10:38.795Z,13.79
2018-06-22T06:11:38.761Z,13.78
2018-06-22T06:12:38.758Z,13.79
2018-06-22T06:13:38.694Z,13.77
2018-06-22T06:14:38.654Z,13.87
2018-06-22T06:15:38.621Z,13.86
2018-06-22T06:16:38.590Z,13.93
2018-06-22T06:17:38.559Z,13.90
2018-06-22T06:18:38.523Z,13.96
2018-06-22T06:19:38.489Z,14.00
2018-06-22T06:20:38.486Z,13.99
2018-06-22T06:21:38.423Z,14.05
2018-06-22T06:22:38.391Z,14.10
2018-06-22T06:23:38.357Z,14.18
2018-06-22T06:24:38.318Z,14.08
2018-06-22T06:25:38.289Z,14.11
2018-06-22T06:26:38.260Z,14.04
2018-06-22T06:27:38.221Z,14.14
2018-06-22T06:28:38.191Z,14.14
2018-06-22T06:29:38.149Z,14.14
2018-06-22T06:30:38.121Z,14.28
2018-06-22T06:31:38.092Z,14.23
2018-06-22T06:32:38.055Z,14.14
2018-06-22T06:33:38.021Z,14.26
2018-06-22T06:34:37.993Z,14.25
2018-06-22T06:35:37.972Z,14.28
2018-06-22T06:36:37.924Z,14.26
2018-06-22T06:37:37.892Z,14.25
2018-06-22T06:38:37.858Z,14.36
2018-06-22T06:39:37.821Z,14.36
2018-06-22T06:40:37.819Z,14.44
2018-06-22T06:41:37.757Z,14.47
2018-06-22T06:42:37.718Z,14.54
2018-06-22T06:43:37.688Z,14.50
2018-06-22T06:44:37.660Z,14.59
2018-06-22T06:45:37.624Z,14.68
2018-06-22T06:46:37.590Z,14.77
2018-06-22T06:47:37.561Z,14.70
2018-06-22T06:48:37.522Z,14.82
2018-06-22T06:49:37.593Z,14.77
2018-06-22T06:50:37.465Z,14.82
2018-06-22T06:51:37.423Z,14.72
2018-06-22T06:52:37.389Z,14.69
2018-06-22T06:53:37.402Z,14.70
2018-06-22T06:54:37.328Z,14.54
2018-06-22T06:55:37.295Z,14.63
2018-06-22T06:56:37.258Z,14.66
2018-06-22T06:57:37.228Z,14.68
2018-06-22T06:58:37.192Z,14.77
2018-06-22T06:59:37.165Z,14.59
2018-06-22T07:00:37.124Z,14.59
2018-06-22T07:01:37.096Z,14.70
2018-06-22T07:02:37.161Z,14.55
2018-06-22T07:03:37.028Z,14.50
2018-06-22T07:04:36.994Z,14.62
2018-06-22T07:05:36.960Z,14.45
2018-06-22T07:06:36.929Z,14.53
2018-06-22T07:07:36.893Z,14.48
2018-06-22T07:08:36.864Z,14.48
2018-06-22T07:09:36.827Z,14.63
2018-06-22T07:12:08.867Z,14.59
2018-06-22T07:13:08.804Z,14.68
2018-06-22T07:14:08.814Z,14.73
2018-06-22T07:15:09.356Z,14.72
2018-06-22T07:16:08.705Z,14.70
2018-06-22T07:17:08.726Z,14.55
2018-06-22T07:18:08.642Z,14.62
2018-06-22T07:19:08.606Z,14.66
2018-06-22T07:20:08.570Z,14.68
2018-06-22T07:21:08.538Z,14.59
2018-06-22T07:22:08.507Z,14.70
2018-06-22T07:23:08.473Z,14.72
2018-06-22T07:24:08.444Z,14.78
2018-06-22T07:25:08.406Z,14.86
2018-06-22T07:26:08.373Z,15.04
2018-06-22T07:27:08.342Z,15.00
2018-06-22T07:28:08.310Z,15.11
2018-06-22T07:29:08.272Z,15.18
2018-06-22T07:30:08.241Z,15.28
2018-06-22T07:31:08.207Z,15.46
2018-06-22T07:32:08.172Z,15.55
2018-06-22T07:33:08.157Z,15.61
2018-06-22T07:34:08.110Z,15.64
2018-06-22T07:35:08.077Z,15.61
2018-06-22T07:36:08.047Z,15.75
2018-06-22T07:37:08.013Z,15.68
2018-06-22T07:38:07.975Z,15.57
2018-06-22T07:39:07.945Z,15.51
2018-06-22T07:40:07.910Z,15.54
2018-06-22T07:41:07.880Z,15.62
2018-06-22T07:42:07.862Z,15.67
2018-06-22T07:43:07.814Z,15.70
2018-06-22T07:44:07.781Z,15.76
2018-06-22T07:45:07.746Z,15.76
2018-06-22T07:46:07.717Z,15.62
2018-06-22T07:47:07.687Z,15.52
2018-06-22T07:48:07.662Z,15.61
2018-06-22T07:49:07.620Z,15.59
2018-06-22T07:50:07.586Z,15.47
2018-06-22T07:51:07.554Z,15.31
2018-06-22T07:52:07.523Z,15.29
2018-06-22T07:53:07.490Z,15.24
2018-06-22T07:54:07.457Z,15.15
2018-06-22T07:55:07.429Z,15.21
2018-06-22T07:56:07.415Z,15.24
2018-06-22T07:57:07.436Z,15.25
2018-06-22T07:58:07.365Z,15.25
2018-06-22T07:59:07.331Z,15.33
2018-06-22T08:00:07.332Z,15.40
2018-06-22T08:01:07.231Z,15.44
2018-06-22T08:02:07.195Z,15.47
2018-06-22T08:03:07.165Z,15.43
2018-06-22T08:04:07.128Z,15.46
2018-06-22T08:05:07.098Z,15.54
2018-06-22T08:06:07.066Z,15.44
2018-06-22T08:07:07.037Z,15.37
2018-06-22T08:08:07.004Z,15.24
2018-06-22T08:09:06.962Z,15.25
2018-06-22T08:10:06.933Z,15.15
2018-06-22T08:11:06.901Z,15.21
2018-06-22T08:12:06.894Z,15.15
2018-06-22T08:13:06.834Z,15.15
2018-06-22T08:14:06.801Z,15.03
2018-06-22T08:15:06.769Z,15.06
2018-06-22T08:16:06.737Z,14.88
2018-06-22T08:17:06.703Z,14.92
2018-06-22T08:18:06.669Z,14.79
2018-06-22T08:19:06.636Z,14.88
2018-06-22T08:20:06.607Z,14.94
2018-06-22T08:21:06.572Z,14.94
2018-06-22T08:22:06.537Z,15.03
2018-06-22T08:23:06.526Z,15.15
2018-06-22T08:24:06.473Z,15.21
2018-06-22T08:25:06.440Z,15.33
2018-06-22T08:26:06.407Z,15.49
2018-06-22T08:27:06.372Z,15.40
2018-06-22T08:28:06.336Z,15.55
2018-06-22T08:29:06.330Z,15.68
2018-06-22T08:30:06.274Z,15.68
2018-06-22T08:31:06.242Z,15.72
2018-06-22T08:32:06.210Z,15.88
2018-06-22T08:33:06.179Z,15.97
2018-06-22T08:34:06.173Z,16.23
2018-06-22T08:35:06.111Z,16.38
2018-06-22T08:36:06.079Z,16.51
2018-06-22T08:37:06.046Z,16.66
2018-06-22T08:38:06.038Z,16.69
2018-06-22T08:39:05.984Z,16.83
2018-06-22T08:40:05.949Z,16.94
2018-06-22T08:41:05.927Z,17.06
2018-06-22T08:42:05.892Z,17.04
2018-06-22T08:43:05.854Z,17.20
2018-06-22T08:44:05.821Z,17.16
2018-06-22T08:45:05.795Z,17.19
2018-06-22T08:46:05.754Z,17.08
2018-06-22T08:47:05.727Z,16.84
2018-06-22T08:48:05.713Z,16.78
2018-06-22T08:49:05.667Z,16.69
2018-06-22T08:50:05.628Z,16.65
2018-06-22T08:51:05.601Z,16.69
2018-06-22T08:52:05.568Z,16.51
2018-06-22T08:53:05.539Z,16.53
2018-06-22T08:54:05.506Z,16.60
2018-06-22T08:55:05.479Z,16.43
2018-06-22T08:56:05.443Z,16.66
2018-06-22T08:57:05.411Z,16.68
2018-06-22T08:58:05.376Z,16.84
2018-06-22T08:59:05.351Z,16.91
2018-06-22T09:00:05.318Z,17.06
2018-06-22T09:01:05.285Z,17.11
2018-06-22T09:02:05.250Z,17.06
2018-06-22T09:03:05.218Z,17.15
2018-06-22T09:04:05.188Z,17.22
2018-06-22T09:05:05.159Z,17.29
2018-06-22T09:06:05.128Z,17.24
2018-06-22T09:07:05.096Z,17.39
2018-06-22T09:08:05.106Z,17.54
2018-06-22T09:09:05.035Z,17.83
2018-06-22T09:10:05.002Z,18.05
2018-06-22T09:11:04.975Z,18.25
2018-06-22T09:12:04.941Z,18.18
2018-06-22T09:13:04.911Z,18.20
2018-06-22T09:14:04.878Z,18.04
2018-06-22T09:15:04.870Z,18.10
2018-06-22T09:16:04.819Z,18.29
2018-06-22T09:17:04.785Z,18.43
2018-06-22T09:18:04.776Z,18.40
2018-06-22T09:19:04.726Z,18.50
2018-06-22T09:20:04.714Z,18.77
2018-06-22T09:21:04.666Z,18.95
2018-06-22T09:22:04.638Z,18.86
2018-06-22T09:23:04.619Z,18.88
2018-06-22T09:24:04.586Z,18.81
2018-06-22T09:25:04.543Z,18.73
2018-06-22T09:26:04.514Z,18.60
2018-06-22T09:27:04.484Z,18.66
2018-06-22T09:28:04.446Z,18.60
2018-06-22T09:29:04.419Z,18.84
2018-06-22T09:30:04.391Z,19.59
2018-06-22T09:31:04.378Z,19.94
2018-06-22T09:32:04.331Z,20.25
2018-06-22T09:33:04.301Z,20.02
2018-06-22T09:34:04.273Z,19.86
2018-06-22T09:35:04.244Z,19.74
2018-06-22T09:36:04.207Z,19.70
2018-06-22T09:37:04.179Z,19.30
2018-06-22T09:38:04.153Z,19.00
2018-06-22T09:39:04.120Z,18.78
2018-06-22T09:40:04.122Z,18.66
2018-06-22T09:41:04.063Z,18.49
2018-06-22T09:42:04.033Z,18.52
2018-06-22T09:43:04.004Z,18.52
2018-06-22T09:44:03.975Z,18.49
2018-06-22T09:45:04.004Z,18.44
2018-06-22T09:46:03.912Z,18.38
2018-06-22T09:47:03.882Z,18.20
2018-06-22T09:48:03.850Z,18.60
2018-06-22T09:49:03.831Z,18.81
2018-06-22T09:50:03.791Z,18.78
2018-06-22T09:51:03.786Z,19.22
2018-06-22T09:52:03.728Z,19.51
2018-06-22T09:53:03.711Z,20.13
2018-06-22T09:54:03.671Z,20.65
2018-06-22T09:55:03.694Z,20.55
2018-06-22T09:56:03.620Z,20.24
2018-06-22T09:57:03.583Z,19.94
2018-06-22T09:58:03.549Z,19.63
2018-06-22T09:59:03.519Z,19.48
2018-06-22T10:00:03.500Z,19.29
2018-06-22T10:01:03.459Z,19.18
2018-06-22T10:02:03.436Z,19.14
2018-06-22T10:03:03.405Z,18.93
2018-06-22T10:04:03.376Z,18.80
2018-06-22T10:05:03.346Z,18.81
2018-06-22T10:06:03.312Z,18.49
2018-06-22T10:07:03.285Z,18.43
2018-06-22T10:08:03.252Z,18.11
2018-06-22T10:09:03.232Z,17.97
2018-06-22T10:10:03.207Z,17.94
2018-06-22T10:11:03.161Z,17.98
2018-06-22T10:12:03.133Z,18.04
2018-06-22T10:13:03.101Z,17.97
2018-06-22T10:14:03.067Z,18.08
2018-06-22T10:15:03.040Z,18.15
2018-06-22T10:16:03.008Z,18.04
2018-06-22T10:17:02.978Z,18.19
2018-06-22T10:18:02.959Z,18.22
2018-06-22T10:19:02.938Z,18.34
2018-06-22T10:20:02.885Z,18.29
2018-06-22T10:21:02.851Z,18.49
2018-06-22T10:22:02.824Z,18.60
2018-06-22T10:23:02.794Z,18.84
2018-06-22T10:24:02.774Z,18.86
2018-06-22T10:25:02.736Z,18.68
2018-06-22T10:26:02.695Z,18.90
2018-06-22T10:27:02.678Z,18.90
2018-06-22T10:28:02.637Z,18.86
2018-06-22T10:29:02.623Z,18.80
2018-06-22T10:30:02.579Z,18.49
2018-06-22T10:31:02.548Z,18.56
2018-06-22T10:32:02.517Z,18.78
2018-06-22T10:33:02.485Z,19.08
2018-06-22T10:34:02.524Z,19.02
2018-06-22T10:35:02.424Z,19.49
2018-06-22T10:36:02.395Z,19.62
2018-06-22T10:37:02.374Z,19.45
2018-06-22T10:38:02.333Z,19.21
2018-06-22T10:39:02.310Z,19.09
2018-06-22T10:40:02.272Z,19.02
2018-06-22T10:41:02.242Z,18.99
2018-06-22T10:42:02.217Z,19.34
2018-06-22T10:43:02.183Z,19.62
2018-06-22T10:44:02.152Z,19.74
2018-06-22T10:45:02.121Z,19.96
2018-06-22T10:46:02.124Z,20.24
2018-06-22T10:47:02.063Z,20.48
2018-06-22T10:48:02.049Z,20.48
2018-06-22T10:49:02.011Z,20.09
2018-06-22T10:50:01.981Z,19.62
2018-06-22T10:51:01.961Z,19.99
2018-06-22T10:52:01.914Z,20.99
2018-06-22T10:53:01.878Z,21.64
2018-06-22T10:54:01.872Z,22.59
2018-06-22T10:55:01.828Z,23.12
2018-06-22T10:56:01.800Z,23.76
2018-06-22T10:57:01.767Z,24.73
2018-06-22T10:58:01.761Z,25.50
2018-06-22T10:59:01.715Z,26.03
2018-06-22T11:00:01.750Z,26.37
2018-06-22T11:01:01.660Z,26.38
2018-06-22T11:02:01.629Z,26.45
2018-06-22T11:03:01.604Z,26.89
2018-06-22T11:04:01.583Z,26.25
2018-06-22T11:05:02.415Z,25.87
2018-06-22T11:06:01.524Z,24.38
2018-06-22T11:07:01.499Z,23.54
2018-06-22T11:08:01.471Z,22.69
2018-06-22T11:09:01.461Z,21.95
2018-06-22T11:10:01.424Z,21.99
2018-06-22T11:11:01.392Z,22.07
2018-06-22T11:12:01.379Z,21.42
2018-06-22T11:13:01.350Z,21.18
2018-06-22T11:14:01.378Z,21.21
2018-06-22T11:15:01.305Z,21.12
2018-06-22T11:16:01.256Z,21.17
2018-06-22T11:17:01.302Z,20.75
2018-06-22T11:18:01.208Z,20.36
2018-06-22T11:19:01.172Z,20.14
2018-06-22T11:20:01.143Z,20.18
2018-06-22T11:21:01.111Z,20.65
2018-06-22T11:22:01.084Z,20.80
2018-06-22T11:23:01.054Z,20.82
2018-06-22T11:24:01.026Z,20.66
2018-06-22T11:25:00.998Z,20.39
2018-06-22T11:26:00.986Z,20.24
2018-06-22T11:27:00.939Z,19.95
2018-06-22T11:28:00.910Z,19.73
2018-06-22T11:29:00.879Z,19.54
2018-06-22T11:30:00.849Z,19.59
2018-06-22T11:31:00.822Z,19.62
2018-06-22T11:32:00.792Z,20.09
2018-06-22T11:33:00.763Z,21.21
2018-06-22T11:34:00.732Z,21.82
2018-06-22T11:35:00.739Z,22.04
2018-06-22T11:36:00.690Z,22.00
2018-06-22T11:37:00.645Z,22.23
2018-06-22T11:38:01.431Z,22.04
2018-06-22T11:39:00.585Z,21.85
2018-06-22T11:40:00.558Z,21.25
2018-06-22T11:41:00.526Z,20.56
2018-06-22T11:42:00.500Z,19.94
2018-06-22T11:43:00.471Z,19.47
2018-06-22T11:44:00.439Z,19.36
2018-06-22T11:45:00.410Z,19.04
2018-06-22T11:46:00.381Z,19.15
2018-06-22T11:47:00.349Z,19.19
2018-06-22T11:48:00.323Z,19.51
2018-06-22T11:49:00.309Z,19.58
2018-06-22T11:50:00.260Z,20.69
2018-06-22T11:51:00.288Z,22.13
2018-06-22T11:52:00.200Z,23.32
2018-06-22T11:53:00.173Z,23.17
2018-06-22T11:54:00.142Z,22.60
2018-06-22T11:55:00.117Z,21.67
2018-06-22T11:56:00.085Z,21.12
2018-06-22T11:57:00.095Z,21.72
2018-06-22T11:58:00.028Z,23.10
2018-06-22T11:59:00.029Z,23.34
2018-06-22T11:59:59.969Z,23.20
2018-06-22T12:00:59.938Z,24.17
2018-06-22T12:01:59.912Z,24.98
2018-06-22T12:02:59.880Z,24.55
2018-06-22T12:03:59.855Z,24.39
2018-06-22T12:04:59.831Z,24.11
2018-06-22T12:05:59.799Z,22.98
2018-06-22T12:06:59.771Z,23.09
2018-06-22T12:07:59.752Z,24.06
2018-06-22T12:08:59.731Z,25.11
2018-06-22T12:09:59.694Z,25.77
2018-06-22T12:10:59.663Z,26.06
2018-06-22T12:11:59.634Z,25.48
2018-06-22T12:12:59.604Z,25.50
2018-06-22T12:13:59.583Z,24.73
2018-06-22T12:14:59.559Z,23.92
2018-06-22T12:15:59.526Z,23.12
2018-06-22T12:16:59.501Z,22.65
2018-06-22T12:17:59.477Z,22.11
2018-06-22T12:18:59.497Z,21.83
2018-06-22T12:19:59.413Z,21.55
2018-06-22T12:20:59.421Z,21.48
2018-06-22T12:21:59.359Z,21.42
2018-06-22T12:22:59.329Z,21.54
2018-06-22T12:23:59.336Z,21.54
2018-06-22T12:24:59.307Z,21.39
2018-06-22T12:25:59.245Z,21.57
2018-06-22T12:26:59.217Z,22.07
2018-06-22T12:27:59.190Z,22.78
2018-06-22T12:28:59.163Z,22.68
2018-06-22T12:29:59.133Z,22.38
2018-06-22T12:30:59.105Z,22.51
2018-06-22T12:31:59.078Z,22.84
2018-06-22T12:32:59.081Z,23.20
2018-06-22T12:33:59.021Z,24.10
2018-06-22T12:34:58.989Z,24.51
2018-06-22T12:35:58.967Z,25.73
2018-06-22T12:36:58.939Z,26.48
2018-06-22T12:37:58.911Z,26.16
2018-06-22T12:38:58.885Z,26.21
2018-06-22T12:39:58.859Z,25.33
2018-06-22T12:40:58.827Z,24.61
2018-06-22T12:41:58.803Z,24.35
2018-06-22T12:42:58.779Z,25.16
2018-06-22T12:43:58.753Z,26.05
2018-06-22T12:44:58.756Z,26.52
2018-06-22T12:45:58.698Z,25.88
2018-06-22T12:46:58.669Z,25.84
2018-06-22T12:47:58.671Z,25.13
2018-06-22T12:48:58.618Z,24.32
2018-06-22T12:49:58.583Z,23.87
2018-06-22T12:50:58.565Z,23.44
2018-06-22T12:51:58.550Z,23.65
2018-06-22T12:52:58.513Z,23.84
2018-06-22T12:53:58.480Z,24.85